Charlottetown, Prince Edward Island

4:29 AM AST on December 10, 2016 (GMT -0400)
Charlottetown | | Change Station

Elev 157 ft 46.29 °N, 63.13 °W | Updated 29 minutes ago

Light Snow Showers
Light Showers Snow Low Drifting Snow
19 °F
Feels Like 6 °F
N
14
Wind Variable Wind from WNW
Gusts 20 mph

Today
High -- | Low -- °F
--% Chance of Precip.
Yesterday
High -- | Low -- °F
Precip. -- in
Pressure 29.83 in
Visibility 10.0 miles
Clouds Overcast 2800 ft
Windchill 6 °F
Dew Point 12 °F
Humidity 74%
Rainfall 0.00 in
Snow Depth Not available.
7:44 AM 4:26 PM
Waxing Gibbous, 81% visible
METAR CYYG 100800Z 29012G17KT 10SM -SHSN DRSN OVC028 M07/M11 A2982 RMK SC8 CVCTV CLD EMBD SLP102
Pressure 29.83 in
Visibility 10.0 miles
Clouds Overcast 2800 ft
Windchill 6 °F
Dew Point 12 °F
Humidity 74%
Rainfall 0.00 in
Snow Depth Not available.
7:44 AM 4:26 PM
Waxing Gibbous, 81% visible
METAR CYYG 100800Z 29012G17KT 10SM -SHSN DRSN OVC028 M07/M11 A2982 RMK SC8 CVCTV CLD EMBD SLP102

10-Day Weather Forecast

Almanac

Astronomy

Dec. 10, 2016 Rise Set
Actual Time
Civil Twilight
Nautical Twilight
Astronomical Twilight
Moon
Length of Visible Light
Length of Day
Tomorrow will be .
, % of the Moon is Illuminated

Today's Extremes

Country Highs Country Lows

Community

WunderPhotos

Upload Photos

1,956,538 photos uploaded!

WunderBlog® & News

Nearby

Air Quality

  Air Quality AQ Index Pollutant
Not available.

Snow Depth

Station Depth Elevation

Earthquake Activity

City Distance Mag. Time & Date
Minimum magnitude displayed is 2.5.

Coastal Water Temperatures

Place Temperature

Stations

Nearby Weather Stations

Station Location Temp. Windchill Dew Point Humidity Wind Precip. Elev Updated Type
                   

Watches & Warnings

There are currently no watches in effect.